sensor_id;sensor_type;location;lat;lon;timestamp;P1;durP1;ratioP1;P2;durP2;ratioP2
12675;SDS011;63820;65.654;21.944;2022-12-18T00:01:14;3.20;;;2.23;;
12675;SDS011;63820;65.654;21.944;2022-12-18T00:04:05;5.43;;;2.17;;
12675;SDS011;63820;65.654;21.944;2022-12-18T00:06:51;2.17;;;1.93;;
12675;SDS011;63820;65.654;21.944;2022-12-18T00:09:36;2.93;;;1.90;;
12675;SDS011;63820;65.654;21.944;2022-12-18T00:12:20;2.37;;;1.53;;
12675;SDS011;63820;65.654;21.944;2022-12-18T00:15:04;2.80;;;1.90;;
12675;SDS011;63820;65.654;21.944;2022-12-18T00:17:49;2.43;;;2.00;;
12675;SDS011;63820;65.654;21.944;2022-12-18T00:20:37;2.97;;;2.27;;
12675;SDS011;63820;65.654;21.944;2022-12-18T00:23:23;3.70;;;2.20;;
12675;SDS011;63820;65.654;21.944;2022-12-18T00:26:10;4.17;;;2.40;;
12675;SDS011;63820;65.654;21.944;2022-12-18T00:29:01;4.50;;;2.13;;
12675;SDS011;63820;65.654;21.944;2022-12-18T00:31:47;3.53;;;1.60;;
12675;SDS011;63820;65.654;21.944;2022-12-18T00:34:31;3.83;;;1.90;;
12675;SDS011;63820;65.654;21.944;2022-12-18T00:37:15;3.23;;;1.80;;
12675;SDS011;63820;65.654;21.944;2022-12-18T00:39:59;3.50;;;1.60;;
12675;SDS011;63820;65.654;21.944;2022-12-18T00:42:43;4.60;;;1.77;;
12675;SDS011;63820;65.654;21.944;2022-12-18T00:45:40;3.37;;;2.03;;
12675;SDS011;63820;65.654;21.944;2022-12-18T00:48:25;4.13;;;1.90;;
12675;SDS011;63820;65.654;21.944;2022-12-18T00:51:09;4.80;;;2.40;;
12675;SDS011;63820;65.654;21.944;2022-12-18T00:53:53;4.30;;;2.17;;
12675;SDS011;63820;65.654;21.944;2022-12-18T00:56:38;3.47;;;1.70;;
12675;SDS011;63820;65.654;21.944;2022-12-18T00:59:23;3.13;;;1.83;;
12675;SDS011;63820;65.654;21.944;2022-12-18T01:02:07;4.33;;;2.23;;
12675;SDS011;63820;65.654;21.944;2022-12-18T01:04:51;3.90;;;2.00;;
12675;SDS011;63820;65.654;21.944;2022-12-18T01:07:36;1.50;;;1.40;;
12675;SDS011;63820;65.654;21.944;2022-12-18T01:10:21;3.17;;;1.33;;
12675;SDS011;63820;65.654;21.944;2022-12-18T01:13:05;3.43;;;1.73;;
12675;SDS011;63820;65.654;21.944;2022-12-18T01:15:49;2.30;;;1.53;;
12675;SDS011;63820;65.654;21.944;2022-12-18T01:18:35;2.40;;;1.80;;
12675;SDS011;63820;65.654;21.944;2022-12-18T01:21:20;2.30;;;1.70;;
12675;SDS011;63820;65.654;21.944;2022-12-18T01:24:05;2.20;;;1.50;;
12675;SDS011;63820;65.654;21.944;2022-12-18T01:26:50;4.13;;;1.43;;
12675;SDS011;63820;65.654;21.944;2022-12-18T01:29:34;2.80;;;1.83;;
12675;SDS011;63820;65.654;21.944;2022-12-18T01:32:18;1.73;;;1.30;;
12675;SDS011;63820;65.654;21.944;2022-12-18T01:35:03;2.33;;;1.67;;
12675;SDS011;63820;65.654;21.944;2022-12-18T01:37:47;2.10;;;1.17;;
12675;SDS011;63820;65.654;21.944;2022-12-18T01:40:31;3.30;;;1.80;;
12675;SDS011;63820;65.654;21.944;2022-12-18T01:43:15;4.03;;;1.87;;
12675;SDS011;63820;65.654;21.944;2022-12-18T01:45:59;1.40;;;1.00;;
12675;SDS011;63820;65.654;21.944;2022-12-18T01:48:44;4.80;;;1.60;;
12675;SDS011;63820;65.654;21.944;2022-12-18T01:51:32;1.57;;;1.47;;
12675;SDS011;63820;65.654;21.944;2022-12-18T01:54:16;1.70;;;1.40;;
12675;SDS011;63820;65.654;21.944;2022-12-18T01:57:01;2.23;;;1.47;;
12675;SDS011;63820;65.654;21.944;2022-12-18T01:59:46;1.27;;;1.20;;
12675;SDS011;63820;65.654;21.944;2022-12-18T02:02:34;1.27;;;1.17;;
12675;SDS011;63820;65.654;21.944;2022-12-18T02:08:34;2.70;;;1.57;;
12675;SDS011;63820;65.654;21.944;2022-12-18T02:14:34;2.57;;;1.63;;
12675;SDS011;63820;65.654;21.944;2022-12-18T02:17:27;3.03;;;1.27;;
12675;SDS011;63820;65.654;21.944;2022-12-18T02:26:46;1.83;;;1.10;;
12675;SDS011;63820;65.654;21.944;2022-12-18T02:32:27;2.87;;;1.60;;
12675;SDS011;63820;65.654;21.944;2022-12-18T02:35:15;1.37;;;0.83;;
12675;SDS011;63820;65.654;21.944;2022-12-18T02:38:04;2.63;;;1.53;;
12675;SDS011;63820;65.654;21.944;2022-12-18T02:40:49;1.63;;;1.27;;
12675;SDS011;63820;65.654;21.944;2022-12-18T02:43:37;1.70;;;1.20;;
12675;SDS011;63820;65.654;21.944;2022-12-18T02:46:31;3.97;;;1.57;;
12675;SDS011;63820;65.654;21.944;2022-12-18T02:58:26;1.20;;;1.10;;
12675;SDS011;63820;65.654;21.944;2022-12-18T03:01:13;2.37;;;1.30;;
12675;SDS011;63820;65.654;21.944;2022-12-18T03:04:39;2.87;;;1.10;;
12675;SDS011;63820;65.654;21.944;2022-12-18T03:07:35;2.23;;;1.40;;
12675;SDS011;63820;65.654;21.944;2022-12-18T03:10:32;3.80;;;1.87;;
12675;SDS011;63820;65.654;21.944;2022-12-18T03:13:26;1.23;;;1.13;;
12675;SDS011;63820;65.654;21.944;2022-12-18T03:16:19;2.93;;;1.30;;
12675;SDS011;63820;65.654;21.944;2022-12-18T03:19:11;1.63;;;1.10;;
12675;SDS011;63820;65.654;21.944;2022-12-18T03:22:00;3.00;;;1.50;;
12675;SDS011;63820;65.654;21.944;2022-12-18T03:24:48;1.00;;;1.00;;
12675;SDS011;63820;65.654;21.944;2022-12-18T03:27:32;2.33;;;1.40;;
12675;SDS011;63820;65.654;21.944;2022-12-18T03:30:19;1.80;;;1.00;;
12675;SDS011;63820;65.654;21.944;2022-12-18T03:33:08;2.43;;;1.40;;
12675;SDS011;63820;65.654;21.944;2022-12-18T03:36:01;1.10;;;0.80;;
12675;SDS011;63820;65.654;21.944;2022-12-18T03:38:46;2.00;;;1.40;;
12675;SDS011;63820;65.654;21.944;2022-12-18T03:41:44;2.97;;;1.60;;
12675;SDS011;63820;65.654;21.944;2022-12-18T03:54:02;3.30;;;0.80;;
12675;SDS011;63820;65.654;21.944;2022-12-18T03:56:48;1.83;;;0.80;;
12675;SDS011;63820;65.654;21.944;2022-12-18T03:59:40;0.80;;;0.80;;
12675;SDS011;63820;65.654;21.944;2022-12-18T04:02:26;3.03;;;1.10;;
12675;SDS011;63820;65.654;21.944;2022-12-18T04:05:12;1.70;;;1.10;;
12675;SDS011;63820;65.654;21.944;2022-12-18T04:07:58;1.33;;;1.10;;
12675;SDS011;63820;65.654;21.944;2022-12-18T04:10:42;3.87;;;1.63;;
12675;SDS011;63820;65.654;21.944;2022-12-18T04:13:28;0.83;;;0.83;;
12675;SDS011;63820;65.654;21.944;2022-12-18T04:16:13;1.43;;;1.10;;
12675;SDS011;63820;65.654;21.944;2022-12-18T04:18:57;2.97;;;1.40;;
12675;SDS011;63820;65.654;21.944;2022-12-18T04:21:42;3.67;;;1.27;;
12675;SDS011;63820;65.654;21.944;2022-12-18T04:24:25;2.37;;;1.10;;
12675;SDS011;63820;65.654;21.944;2022-12-18T04:27:10;4.67;;;1.37;;
12675;SDS011;63820;65.654;21.944;2022-12-18T04:29:54;2.40;;;1.17;;
12675;SDS011;63820;65.654;21.944;2022-12-18T04:32:38;1.37;;;1.03;;
12675;SDS011;63820;65.654;21.944;2022-12-18T04:35:22;2.20;;;1.00;;
12675;SDS011;63820;65.654;21.944;2022-12-18T04:38:07;1.50;;;1.10;;
12675;SDS011;63820;65.654;21.944;2022-12-18T04:40:52;3.13;;;1.47;;
12675;SDS011;63820;65.654;21.944;2022-12-18T04:43:36;2.70;;;1.13;;
12675;SDS011;63820;65.654;21.944;2022-12-18T04:46:20;1.77;;;1.00;;
12675;SDS011;63820;65.654;21.944;2022-12-18T04:49:03;0.93;;;0.70;;
12675;SDS011;63820;65.654;21.944;2022-12-18T04:51:47;1.93;;;0.93;;
12675;SDS011;63820;65.654;21.944;2022-12-18T04:54:32;1.77;;;1.10;;
12675;SDS011;63820;65.654;21.944;2022-12-18T04:57:16;1.23;;;0.90;;
12675;SDS011;63820;65.654;21.944;2022-12-18T05:00:03;2.27;;;1.30;;
12675;SDS011;63820;65.654;21.944;2022-12-18T05:02:49;1.60;;;1.20;;
12675;SDS011;63820;65.654;21.944;2022-12-18T05:05:34;1.27;;;1.13;;
12675;SDS011;63820;65.654;21.944;2022-12-18T05:08:18;3.73;;;1.40;;
12675;SDS011;63820;65.654;21.944;2022-12-18T05:11:04;2.27;;;1.03;;
12675;SDS011;63820;65.654;21.944;2022-12-18T05:13:50;1.87;;;1.07;;
12675;SDS011;63820;65.654;21.944;2022-12-18T05:16:34;3.17;;;1.33;;
12675;SDS011;63820;65.654;21.944;2022-12-18T05:19:19;2.50;;;1.03;;
12675;SDS011;63820;65.654;21.944;2022-12-18T05:22:03;2.27;;;1.10;;
12675;SDS011;63820;65.654;21.944;2022-12-18T05:24:47;1.77;;;1.17;;
12675;SDS011;63820;65.654;21.944;2022-12-18T05:27:31;0.77;;;0.73;;
12675;SDS011;63820;65.654;21.944;2022-12-18T05:30:15;2.70;;;1.70;;
12675;SDS011;63820;65.654;21.944;2022-12-18T05:32:59;1.63;;;1.20;;
12675;SDS011;63820;65.654;21.944;2022-12-18T05:35:44;1.13;;;1.00;;
12675;SDS011;63820;65.654;21.944;2022-12-18T05:38:34;1.00;;;0.90;;
12675;SDS011;63820;65.654;21.944;2022-12-18T05:41:20;1.07;;;0.97;;
12675;SDS011;63820;65.654;21.944;2022-12-18T05:44:04;0.80;;;0.80;;
12675;SDS011;63820;65.654;21.944;2022-12-18T05:46:49;1.33;;;0.80;;
12675;SDS011;63820;65.654;21.944;2022-12-18T05:49:33;2.07;;;1.00;;
12675;SDS011;63820;65.654;21.944;2022-12-18T05:52:17;1.03;;;0.90;;
12675;SDS011;63820;65.654;21.944;2022-12-18T05:55:01;3.47;;;1.27;;
12675;SDS011;63820;65.654;21.944;2022-12-18T05:57:46;2.30;;;1.10;;
12675;SDS011;63820;65.654;21.944;2022-12-18T06:00:30;1.10;;;1.00;;
12675;SDS011;63820;65.654;21.944;2022-12-18T06:03:15;1.93;;;1.23;;
12675;SDS011;63820;65.654;21.944;2022-12-18T06:06:00;1.00;;;0.90;;
12675;SDS011;63820;65.654;21.944;2022-12-18T06:08:45;0.97;;;0.80;;
12675;SDS011;63820;65.654;21.944;2022-12-18T06:11:30;1.87;;;1.07;;
12675;SDS011;63820;65.654;21.944;2022-12-18T06:14:14;1.50;;;0.90;;
12675;SDS011;63820;65.654;21.944;2022-12-18T06:17:00;1.30;;;0.87;;
12675;SDS011;63820;65.654;21.944;2022-12-18T06:19:45;2.10;;;1.30;;
12675;SDS011;63820;65.654;21.944;2022-12-18T06:22:30;0.63;;;0.57;;
12675;SDS011;63820;65.654;21.944;2022-12-18T06:25:15;0.60;;;0.60;;
12675;SDS011;63820;65.654;21.944;2022-12-18T06:27:59;0.80;;;0.73;;
12675;SDS011;63820;65.654;21.944;2022-12-18T06:30:43;3.90;;;1.50;;
12675;SDS011;63820;65.654;21.944;2022-12-18T06:33:29;1.20;;;1.10;;
12675;SDS011;63820;65.654;21.944;2022-12-18T06:36:13;1.20;;;0.77;;
12675;SDS011;63820;65.654;21.944;2022-12-18T06:38:58;1.00;;;1.00;;
12675;SDS011;63820;65.654;21.944;2022-12-18T06:41:43;1.83;;;1.17;;
12675;SDS011;63820;65.654;21.944;2022-12-18T06:44:27;2.20;;;0.73;;
12675;SDS011;63820;65.654;21.944;2022-12-18T06:47:11;0.63;;;0.63;;
12675;SDS011;63820;65.654;21.944;2022-12-18T06:49:55;0.90;;;0.73;;
12675;SDS011;63820;65.654;21.944;2022-12-18T06:52:39;2.73;;;1.33;;
12675;SDS011;63820;65.654;21.944;2022-12-18T06:55:23;2.77;;;0.90;;
12675;SDS011;63820;65.654;21.944;2022-12-18T06:58:08;1.57;;;1.33;;
12675;SDS011;63820;65.654;21.944;2022-12-18T07:00:52;1.57;;;0.83;;
12675;SDS011;63820;65.654;21.944;2022-12-18T07:03:37;1.90;;;1.47;;
12675;SDS011;63820;65.654;21.944;2022-12-18T07:06:24;1.17;;;1.10;;
12675;SDS011;63820;65.654;21.944;2022-12-18T07:09:09;1.10;;;1.00;;
12675;SDS011;63820;65.654;21.944;2022-12-18T07:11:53;2.47;;;1.27;;
12675;SDS011;63820;65.654;21.944;2022-12-18T07:14:37;1.00;;;0.73;;
12675;SDS011;63820;65.654;21.944;2022-12-18T07:17:21;1.00;;;0.90;;
12675;SDS011;63820;65.654;21.944;2022-12-18T07:20:05;0.67;;;0.67;;
12675;SDS011;63820;65.654;21.944;2022-12-18T07:22:50;1.30;;;0.73;;
12675;SDS011;63820;65.654;21.944;2022-12-18T07:25:35;5.03;;;1.43;;
12675;SDS011;63820;65.654;21.944;2022-12-18T07:28:19;1.07;;;1.03;;
12675;SDS011;63820;65.654;21.944;2022-12-18T07:31:04;2.30;;;1.63;;
12675;SDS011;63820;65.654;21.944;2022-12-18T07:33:50;2.13;;;1.10;;
12675;SDS011;63820;65.654;21.944;2022-12-18T07:36:35;3.10;;;1.60;;
12675;SDS011;63820;65.654;21.944;2022-12-18T07:39:19;7.33;;;3.40;;
12675;SDS011;63820;65.654;21.944;2022-12-18T07:42:03;11.80;;;4.20;;
12675;SDS011;63820;65.654;21.944;2022-12-18T07:45:06;2.37;;;1.83;;
12675;SDS011;63820;65.654;21.944;2022-12-18T07:47:51;1.53;;;1.40;;
12675;SDS011;63820;65.654;21.944;2022-12-18T07:50:35;5.03;;;2.30;;
12675;SDS011;63820;65.654;21.944;2022-12-18T07:53:19;4.57;;;2.20;;
12675;SDS011;63820;65.654;21.944;2022-12-18T07:56:04;3.47;;;1.87;;
12675;SDS011;63820;65.654;21.944;2022-12-18T07:58:50;2.33;;;1.77;;
12675;SDS011;63820;65.654;21.944;2022-12-18T08:01:34;1.77;;;1.37;;
12675;SDS011;63820;65.654;21.944;2022-12-18T08:04:18;2.33;;;1.33;;
12675;SDS011;63820;65.654;21.944;2022-12-18T08:07:02;1.63;;;1.20;;
12675;SDS011;63820;65.654;21.944;2022-12-18T08:09:46;1.53;;;1.10;;
12675;SDS011;63820;65.654;21.944;2022-12-18T08:12:30;1.30;;;1.17;;
12675;SDS011;63820;65.654;21.944;2022-12-18T08:15:14;2.97;;;1.60;;
12675;SDS011;63820;65.654;21.944;2022-12-18T08:17:59;2.47;;;1.57;;
12675;SDS011;63820;65.654;21.944;2022-12-18T08:20:43;4.70;;;1.80;;
12675;SDS011;63820;65.654;21.944;2022-12-18T08:23:27;4.13;;;2.30;;
12675;SDS011;63820;65.654;21.944;2022-12-18T08:26:11;7.97;;;3.23;;
12675;SDS011;63820;65.654;21.944;2022-12-18T08:28:56;7.37;;;3.27;;
12675;SDS011;63820;65.654;21.944;2022-12-18T08:31:42;3.60;;;1.60;;
12675;SDS011;63820;65.654;21.944;2022-12-18T08:34:26;5.40;;;2.10;;
12675;SDS011;63820;65.654;21.944;2022-12-18T08:37:10;1.70;;;1.07;;
12675;SDS011;63820;65.654;21.944;2022-12-18T08:39:54;1.83;;;1.20;;
12675;SDS011;63820;65.654;21.944;2022-12-18T08:42:38;3.47;;;1.60;;
12675;SDS011;63820;65.654;21.944;2022-12-18T08:45:41;1.70;;;1.50;;
12675;SDS011;63820;65.654;21.944;2022-12-18T08:48:25;2.30;;;1.20;;
12675;SDS011;63820;65.654;21.944;2022-12-18T08:51:09;2.33;;;1.30;;
12675;SDS011;63820;65.654;21.944;2022-12-18T08:53:54;1.97;;;1.27;;
12675;SDS011;63820;65.654;21.944;2022-12-18T08:56:38;3.40;;;1.50;;
12675;SDS011;63820;65.654;21.944;2022-12-18T08:59:22;1.77;;;1.30;;
12675;SDS011;63820;65.654;21.944;2022-12-18T09:02:08;2.20;;;1.40;;
12675;SDS011;63820;65.654;21.944;2022-12-18T09:04:54;4.70;;;1.70;;
12675;SDS011;63820;65.654;21.944;2022-12-18T09:07:38;2.17;;;1.87;;
12675;SDS011;63820;65.654;21.944;2022-12-18T09:10:22;6.03;;;2.90;;
12675;SDS011;63820;65.654;21.944;2022-12-18T09:13:06;3.70;;;1.90;;
12675;SDS011;63820;65.654;21.944;2022-12-18T09:15:51;4.47;;;2.57;;
12675;SDS011;63820;65.654;21.944;2022-12-18T09:18:37;6.73;;;3.43;;
12675;SDS011;63820;65.654;21.944;2022-12-18T09:21:21;8.27;;;3.30;;
12675;SDS011;63820;65.654;21.944;2022-12-18T09:24:06;3.90;;;2.57;;
12675;SDS011;63820;65.654;21.944;2022-12-18T09:26:52;4.80;;;2.47;;
12675;SDS011;63820;65.654;21.944;2022-12-18T09:29:38;6.00;;;3.60;;
12675;SDS011;63820;65.654;21.944;2022-12-18T09:32:22;5.83;;;3.37;;
12675;SDS011;63820;65.654;21.944;2022-12-18T09:35:07;7.43;;;3.83;;
12675;SDS011;63820;65.654;21.944;2022-12-18T09:37:51;4.93;;;3.30;;
12675;SDS011;63820;65.654;21.944;2022-12-18T09:40:36;8.15;;;5.75;;
12675;SDS011;63820;65.654;21.944;2022-12-18T09:43:28;7.13;;;4.33;;
12675;SDS011;63820;65.654;21.944;2022-12-18T09:46:32;5.40;;;3.60;;
12675;SDS011;63820;65.654;21.944;2022-12-18T09:49:23;5.80;;;3.80;;
12675;SDS011;63820;65.654;21.944;2022-12-18T09:55:00;5.37;;;4.10;;
12675;SDS011;63820;65.654;21.944;2022-12-18T09:57:51;8.00;;;3.80;;
12675;SDS011;63820;65.654;21.944;2022-12-18T10:00:40;7.13;;;4.00;;
12675;SDS011;63820;65.654;21.944;2022-12-18T10:03:25;6.50;;;3.57;;
12675;SDS011;63820;65.654;21.944;2022-12-18T10:06:14;6.13;;;3.33;;
12675;SDS011;63820;65.654;21.944;2022-12-18T10:09:05;5.10;;;2.77;;
12675;SDS011;63820;65.654;21.944;2022-12-18T10:11:58;5.30;;;3.13;;
12675;SDS011;63820;65.654;21.944;2022-12-18T10:15:10;3.27;;;2.50;;
12675;SDS011;63820;65.654;21.944;2022-12-18T10:20:58;4.90;;;2.40;;
12675;SDS011;63820;65.654;21.944;2022-12-18T10:26:46;5.70;;;3.20;;
12675;SDS011;63820;65.654;21.944;2022-12-18T10:29:31;6.23;;;2.80;;
12675;SDS011;63820;65.654;21.944;2022-12-18T10:32:17;6.10;;;3.10;;
12675;SDS011;63820;65.654;21.944;2022-12-18T10:35:02;4.53;;;2.80;;
12675;SDS011;63820;65.654;21.944;2022-12-18T10:38:00;5.67;;;2.83;;
12675;SDS011;63820;65.654;21.944;2022-12-18T10:41:06;5.43;;;2.70;;
12675;SDS011;63820;65.654;21.944;2022-12-18T10:47:02;6.50;;;2.53;;
12675;SDS011;63820;65.654;21.944;2022-12-18T10:49:49;4.87;;;2.60;;
12675;SDS011;63820;65.654;21.944;2022-12-18T10:52:36;2.87;;;2.30;;
12675;SDS011;63820;65.654;21.944;2022-12-18T10:55:20;5.77;;;2.47;;
12675;SDS011;63820;65.654;21.944;2022-12-18T10:58:22;3.80;;;1.77;;
12675;SDS011;63820;65.654;21.944;2022-12-18T11:01:11;2.80;;;1.60;;
12675;SDS011;63820;65.654;21.944;2022-12-18T11:04:02;4.83;;;2.13;;
12675;SDS011;63820;65.654;21.944;2022-12-18T11:06:53;4.40;;;2.30;;
12675;SDS011;63820;65.654;21.944;2022-12-18T11:09:38;5.07;;;2.30;;
12675;SDS011;63820;65.654;21.944;2022-12-18T11:12:23;3.33;;;1.80;;
12675;SDS011;63820;65.654;21.944;2022-12-18T11:15:13;4.53;;;2.17;;
12675;SDS011;63820;65.654;21.944;2022-12-18T11:18:03;3.40;;;2.20;;
12675;SDS011;63820;65.654;21.944;2022-12-18T11:20:51;4.27;;;2.10;;
12675;SDS011;63820;65.654;21.944;2022-12-18T11:23:50;3.33;;;1.90;;
12675;SDS011;63820;65.654;21.944;2022-12-18T11:26:36;3.30;;;2.30;;
12675;SDS011;63820;65.654;21.944;2022-12-18T11:29:26;5.10;;;2.40;;
12675;SDS011;63820;65.654;21.944;2022-12-18T11:35:25;4.30;;;2.83;;
12675;SDS011;63820;65.654;21.944;2022-12-18T11:38:20;3.30;;;2.33;;
12675;SDS011;63820;65.654;21.944;2022-12-18T11:44:45;4.87;;;2.07;;
12675;SDS011;63820;65.654;21.944;2022-12-18T11:53:19;4.50;;;2.60;;
12675;SDS011;63820;65.654;21.944;2022-12-18T12:11:56;3.87;;;2.10;;
12675;SDS011;63820;65.654;21.944;2022-12-18T12:15:05;5.05;;;2.72;;
12675;SDS011;63820;65.654;21.944;2022-12-18T12:21:12;2.97;;;2.00;;
12675;SDS011;63820;65.654;21.944;2022-12-18T12:30:06;3.17;;;2.13;;
12675;SDS011;63820;65.654;21.944;2022-12-18T12:33:01;5.03;;;2.03;;
12675;SDS011;63820;65.654;21.944;2022-12-18T12:36:15;3.53;;;2.00;;
12675;SDS011;63820;65.654;21.944;2022-12-18T12:39:22;4.13;;;2.00;;
12675;SDS011;63820;65.654;21.944;2022-12-18T12:42:15;3.33;;;1.77;;
12675;SDS011;63820;65.654;21.944;2022-12-18T12:45:56;2.77;;;1.97;;
12675;SDS011;63820;65.654;21.944;2022-12-18T12:51:35;3.40;;;1.97;;
12675;SDS011;63820;65.654;21.944;2022-12-18T12:54:23;5.47;;;2.50;;
12675;SDS011;63820;65.654;21.944;2022-12-18T12:57:54;3.60;;;2.13;;
12675;SDS011;63820;65.654;21.944;2022-12-18T13:00:20;4.13;;;2.47;;
12675;SDS011;63820;65.654;21.944;2022-12-18T13:03:12;5.70;;;2.70;;
12675;SDS011;63820;65.654;21.944;2022-12-18T13:06:28;6.47;;;2.77;;
12675;SDS011;63820;65.654;21.944;2022-12-18T13:09:33;4.40;;;2.33;;
12675;SDS011;63820;65.654;21.944;2022-12-18T13:12:18;4.30;;;2.60;;
12675;SDS011;63820;65.654;21.944;2022-12-18T13:15:26;5.50;;;2.53;;
12675;SDS011;63820;65.654;21.944;2022-12-18T13:18:21;4.97;;;2.77;;
12675;SDS011;63820;65.654;21.944;2022-12-18T13:21:21;3.50;;;2.10;;
12675;SDS011;63820;65.654;21.944;2022-12-18T13:24:15;4.57;;;2.47;;
12675;SDS011;63820;65.654;21.944;2022-12-18T13:44:49;2.30;;;1.93;;
12675;SDS011;63820;65.654;21.944;2022-12-18T13:47:33;4.03;;;2.13;;
12675;SDS011;63820;65.654;21.944;2022-12-18T13:50:24;5.20;;;2.20;;
12675;SDS011;63820;65.654;21.944;2022-12-18T13:53:16;4.53;;;2.00;;
12675;SDS011;63820;65.654;21.944;2022-12-18T13:56:06;3.77;;;2.00;;
12675;SDS011;63820;65.654;21.944;2022-12-18T14:01:58;2.37;;;1.70;;
12675;SDS011;63820;65.654;21.944;2022-12-18T14:04:46;3.90;;;2.10;;
12675;SDS011;63820;65.654;21.944;2022-12-18T14:07:32;2.93;;;2.17;;
12675;SDS011;63820;65.654;21.944;2022-12-18T14:10:16;3.67;;;2.20;;
12675;SDS011;63820;65.654;21.944;2022-12-18T14:13:08;4.43;;;2.47;;
12675;SDS011;63820;65.654;21.944;2022-12-18T14:15:54;3.87;;;2.30;;
12675;SDS011;63820;65.654;21.944;2022-12-18T14:18:48;3.93;;;2.70;;
12675;SDS011;63820;65.654;21.944;2022-12-18T14:21:32;2.60;;;1.80;;
12675;SDS011;63820;65.654;21.944;2022-12-18T14:24:19;3.90;;;1.80;;
12675;SDS011;63820;65.654;21.944;2022-12-18T14:27:13;4.07;;;2.07;;
12675;SDS011;63820;65.654;21.944;2022-12-18T14:30:22;4.97;;;2.77;;
12675;SDS011;63820;65.654;21.944;2022-12-18T14:33:14;5.03;;;2.43;;
12675;SDS011;63820;65.654;21.944;2022-12-18T14:36:03;3.47;;;2.00;;
12675;SDS011;63820;65.654;21.944;2022-12-18T14:38:50;3.37;;;1.70;;
12675;SDS011;63820;65.654;21.944;2022-12-18T14:41:37;3.77;;;1.80;;
12675;SDS011;63820;65.654;21.944;2022-12-18T14:44:21;3.57;;;1.83;;
12675;SDS011;63820;65.654;21.944;2022-12-18T14:47:12;4.50;;;2.20;;
12675;SDS011;63820;65.654;21.944;2022-12-18T14:49:58;4.57;;;2.43;;
12675;SDS011;63820;65.654;21.944;2022-12-18T14:52:43;3.57;;;2.10;;
12675;SDS011;63820;65.654;21.944;2022-12-18T14:55:28;3.53;;;2.27;;
12675;SDS011;63820;65.654;21.944;2022-12-18T14:58:13;2.60;;;2.10;;
12675;SDS011;63820;65.654;21.944;2022-12-18T15:00:59;5.30;;;2.67;;
12675;SDS011;63820;65.654;21.944;2022-12-18T15:03:44;3.00;;;1.67;;
12675;SDS011;63820;65.654;21.944;2022-12-18T15:09:23;2.73;;;1.50;;
12675;SDS011;63820;65.654;21.944;2022-12-18T15:12:24;4.90;;;2.70;;
12675;SDS011;63820;65.654;21.944;2022-12-18T15:18:23;3.43;;;2.30;;
12675;SDS011;63820;65.654;21.944;2022-12-18T15:21:16;4.40;;;2.10;;
12675;SDS011;63820;65.654;21.944;2022-12-18T15:24:04;3.50;;;1.67;;
12675;SDS011;63820;65.654;21.944;2022-12-18T15:27:00;2.67;;;1.87;;
12675;SDS011;63820;65.654;21.944;2022-12-18T15:29:58;2.30;;;1.57;;
12675;SDS011;63820;65.654;21.944;2022-12-18T15:32:43;3.33;;;1.63;;
12675;SDS011;63820;65.654;21.944;2022-12-18T15:35:28;2.00;;;1.67;;
12675;SDS011;63820;65.654;21.944;2022-12-18T15:38:12;2.50;;;1.70;;
12675;SDS011;63820;65.654;21.944;2022-12-18T15:40:56;3.07;;;1.50;;
12675;SDS011;63820;65.654;21.944;2022-12-18T15:43:41;2.90;;;1.70;;
12675;SDS011;63820;65.654;21.944;2022-12-18T15:46:26;2.50;;;1.60;;
12675;SDS011;63820;65.654;21.944;2022-12-18T15:49:11;2.70;;;1.30;;
12675;SDS011;63820;65.654;21.944;2022-12-18T15:51:56;3.40;;;1.73;;
12675;SDS011;63820;65.654;21.944;2022-12-18T15:54:43;2.67;;;1.73;;
12675;SDS011;63820;65.654;21.944;2022-12-18T15:57:46;3.53;;;1.60;;
12675;SDS011;63820;65.654;21.944;2022-12-18T16:00:31;2.37;;;1.57;;
12675;SDS011;63820;65.654;21.944;2022-12-18T16:03:17;3.67;;;1.57;;
12675;SDS011;63820;65.654;21.944;2022-12-18T16:06:01;2.50;;;1.70;;
12675;SDS011;63820;65.654;21.944;2022-12-18T16:08:46;2.50;;;1.57;;
12675;SDS011;63820;65.654;21.944;2022-12-18T16:11:31;3.07;;;1.53;;
12675;SDS011;63820;65.654;21.944;2022-12-18T16:14:25;2.10;;;1.40;;
12675;SDS011;63820;65.654;21.944;2022-12-18T16:17:11;2.50;;;1.33;;
12675;SDS011;63820;65.654;21.944;2022-12-18T16:19:56;3.30;;;1.60;;
12675;SDS011;63820;65.654;21.944;2022-12-18T16:22:41;3.40;;;1.83;;
12675;SDS011;63820;65.654;21.944;2022-12-18T16:25:29;1.87;;;1.20;;
12675;SDS011;63820;65.654;21.944;2022-12-18T16:28:13;1.77;;;1.27;;
12675;SDS011;63820;65.654;21.944;2022-12-18T16:30:58;4.57;;;1.40;;
12675;SDS011;63820;65.654;21.944;2022-12-18T16:33:43;2.37;;;1.67;;
12675;SDS011;63820;65.654;21.944;2022-12-18T16:36:27;2.13;;;1.33;;
12675;SDS011;63820;65.654;21.944;2022-12-18T16:39:11;2.67;;;1.53;;
12675;SDS011;63820;65.654;21.944;2022-12-18T16:41:55;1.37;;;1.20;;
12675;SDS011;63820;65.654;21.944;2022-12-18T16:44:39;2.63;;;1.40;;
12675;SDS011;63820;65.654;21.944;2022-12-18T16:47:24;2.73;;;1.60;;
12675;SDS011;63820;65.654;21.944;2022-12-18T16:50:08;2.17;;;1.90;;
12675;SDS011;63820;65.654;21.944;2022-12-18T16:52:53;2.80;;;1.70;;
12675;SDS011;63820;65.654;21.944;2022-12-18T16:55:37;3.03;;;1.87;;
12675;SDS011;63820;65.654;21.944;2022-12-18T16:58:21;3.07;;;2.00;;
12675;SDS011;63820;65.654;21.944;2022-12-18T17:01:11;3.73;;;1.80;;
12675;SDS011;63820;65.654;21.944;2022-12-18T17:03:57;3.63;;;2.10;;
12675;SDS011;63820;65.654;21.944;2022-12-18T17:06:44;3.07;;;1.70;;
12675;SDS011;63820;65.654;21.944;2022-12-18T17:09:34;3.13;;;1.63;;
12675;SDS011;63820;65.654;21.944;2022-12-18T17:12:19;5.73;;;1.30;;
12675;SDS011;63820;65.654;21.944;2022-12-18T17:15:03;4.37;;;1.57;;
12675;SDS011;63820;65.654;21.944;2022-12-18T17:17:47;1.73;;;1.33;;
12675;SDS011;63820;65.654;21.944;2022-12-18T17:20:31;2.20;;;1.40;;
12675;SDS011;63820;65.654;21.944;2022-12-18T17:23:15;2.87;;;1.90;;
12675;SDS011;63820;65.654;21.944;2022-12-18T17:26:00;2.77;;;1.87;;
12675;SDS011;63820;65.654;21.944;2022-12-18T17:28:44;3.17;;;1.73;;
12675;SDS011;63820;65.654;21.944;2022-12-18T17:31:28;4.37;;;2.40;;
12675;SDS011;63820;65.654;21.944;2022-12-18T17:34:13;3.20;;;2.00;;
12675;SDS011;63820;65.654;21.944;2022-12-18T17:36:58;3.57;;;1.90;;
12675;SDS011;63820;65.654;21.944;2022-12-18T17:39:42;1.30;;;1.10;;
12675;SDS011;63820;65.654;21.944;2022-12-18T17:42:26;1.83;;;1.00;;
12675;SDS011;63820;65.654;21.944;2022-12-18T17:45:10;3.37;;;1.57;;
12675;SDS011;63820;65.654;21.944;2022-12-18T17:47:55;1.57;;;1.20;;
12675;SDS011;63820;65.654;21.944;2022-12-18T17:50:39;2.50;;;1.50;;
12675;SDS011;63820;65.654;21.944;2022-12-18T17:53:23;2.37;;;1.07;;
12675;SDS011;63820;65.654;21.944;2022-12-18T17:56:08;1.73;;;1.03;;
12675;SDS011;63820;65.654;21.944;2022-12-18T17:58:56;1.87;;;1.00;;
12675;SDS011;63820;65.654;21.944;2022-12-18T18:01:40;2.03;;;1.23;;
12675;SDS011;63820;65.654;21.944;2022-12-18T18:04:24;2.33;;;1.50;;
12675;SDS011;63820;65.654;21.944;2022-12-18T18:07:08;2.20;;;1.27;;
12675;SDS011;63820;65.654;21.944;2022-12-18T18:09:52;2.43;;;1.43;;
12675;SDS011;63820;65.654;21.944;2022-12-18T18:12:36;1.50;;;1.40;;
12675;SDS011;63820;65.654;21.944;2022-12-18T18:15:39;1.40;;;1.30;;
12675;SDS011;63820;65.654;21.944;2022-12-18T18:18:24;2.67;;;1.40;;
12675;SDS011;63820;65.654;21.944;2022-12-18T18:21:08;1.83;;;1.30;;
12675;SDS011;63820;65.654;21.944;2022-12-18T18:23:52;2.53;;;1.40;;
12675;SDS011;63820;65.654;21.944;2022-12-18T18:26:37;1.53;;;1.40;;